Time;durP1;ratioP1;P1;durP2;ratioP2;P2;SDS_P1;SDS_P2;PMS_P1;PMS_P2;Temp;Humidity;BMP_temperature;BMP_pressure;BME280_temperature;BME280_humidity;BME280_pressure;Samples;Min_cycle;Max_cycle;Signal;HPM_P1;HPM_P2
2020/12/27 00:00:24;;;;;;;75.07;42.38;;;;;;;2.79;67.94;101770.41;5005760;28;20030;-86
2020/12/27 00:02:51;;;;;;;66.20;38.70;;;;;;;3.59;68.27;101896.50;4989261;28;20041;-85
2020/12/27 00:05:19;;;;;;;85.53;41.80;;;;;;;2.89;68.19;101775.69;4973749;28;20394;-86
2020/12/27 00:07:47;;;;;;;73.88;43.47;;;;;;;2.93;68.17;101773.47;4990191;28;20034;-86
2020/12/27 00:10:14;;;;;;;86.35;42.92;;;;;;;3.71;67.86;101894.22;4972545;28;20050;-85
2020/12/27 00:12:41;;;;;;;79.95;41.65;;;;;;;3.51;67.85;101863.66;4972730;28;20031;-86
2020/12/27 00:15:08;;;;;;;79.78;44.28;;;;;;;3.72;67.99;101895.06;5005059;28;20652;-86
2020/12/27 00:17:34;;;;;;;80.00;43.28;;;;;;;3.68;67.86;101892.69;4972912;28;20038;-85
2020/12/27 00:20:04;;;;;;;75.63;44.00;;;;;;;3.64;67.71;101869.41;4973548;28;20047;-86
2020/12/27 00:22:31;;;;;;;77.70;45.30;;;;;;;3.20;67.66;101801.47;4973549;28;20472;-86
2020/12/27 00:24:58;;;;;;;72.88;43.65;;;;;;;2.76;67.89;101748.88;4972386;28;20018;-85
2020/12/27 00:27:25;;;;;;;77.07;43.92;;;;;;;3.14;68.16;101803.88;4973627;28;20026;-86
2020/12/27 00:29:52;;;;;;;71.82;42.38;;;;;;;2.62;68.12;101682.09;4973670;28;20032;-86
2020/12/27 00:32:19;;;;;;;78.53;43.70;;;;;;;2.74;67.56;101713.50;5004930;28;20388;-87
2020/12/27 00:34:46;;;;;;;82.80;44.00;;;;;;;3.36;68.01;101815.09;4973554;28;20030;-86
2020/12/27 00:37:13;;;;;;;78.82;43.40;;;;;;;3.27;68.01;101778.69;4972414;28;20423;-86
2020/12/27 00:39:41;;;;;;;78.15;46.85;;;;;;;2.37;67.49;101634.81;4972414;28;20039;-86
2020/12/27 00:42:08;;;;;;;79.60;46.03;;;;;;;3.45;67.07;101784.94;5004807;28;20105;-86
2020/12/27 00:44:35;;;;;;;71.53;41.90;;;;;;;3.49;67.13;101787.16;4972196;28;20567;-87
2020/12/27 00:47:02;;;;;;;86.35;45.13;;;;;;;3.39;67.19;101762.72;4972094;28;20035;-86
2020/12/27 00:49:29;;;;;;;81.47;44.78;;;;;;;3.26;66.95;101735.03;4972241;28;20035;-85
2020/12/27 00:51:56;;;;;;;98.13;49.35;;;;;;;3.45;67.10;101749.34;4973374;28;20110;-84
2020/12/27 00:54:23;;;;;;;80.90;44.20;;;;;;;4.22;67.07;101869.16;5004561;28;20026;-84
2020/12/27 00:56:51;;;;;;;85.25;44.33;;;;;;;4.34;66.77;101874.25;4988093;28;20050;-86
2020/12/27 00:59:20;;;;;;;88.03;47.63;;;;;;;3.35;66.63;101687.47;4973057;28;20094;-85
2020/12/27 01:01:47;;;;;;;79.25;45.28;;;;;;;4.42;66.09;101852.25;5004182;28;20090;-84
2020/12/27 01:04:14;;;;;;;86.88;47.97;;;;;;;3.83;65.66;101730.31;5004647;28;20081;-85
2020/12/27 01:06:41;;;;;;;87.18;50.03;;;;;;;3.94;65.72;101727.16;4973028;28;20029;-85
2020/12/27 01:09:08;;;;;;;87.45;49.40;;;;;;;4.83;65.20;101831.03;4973084;28;20034;-84
2020/12/27 01:11:35;;;;;;;81.80;45.40;;;;;;;3.99;64.72;101676.44;4972913;28;20384;-85
2020/12/27 01:14:02;;;;;;;79.50;43.78;;;;;;;4.27;64.75;101736.19;4971599;28;20097;-84
2020/12/27 01:16:29;;;;;;;80.25;46.03;;;;;;;5.09;64.87;101843.47;4987939;28;20491;-83
2020/12/27 01:18:56;;;;;;;68.47;40.88;;;;;;;4.50;64.33;101756.22;4971319;28;20033;-84
2020/12/27 01:21:28;;;;;;;69.85;40.47;;;;;;;4.59;63.89;101739.69;4972676;28;20026;-83
2020/12/27 01:23:58;;;;;;;75.25;41.95;;;;;;;3.68;63.59;101583.19;5004406;28;20101;-85
2020/12/27 01:26:33;;;;;;;66.88;40.58;;;;;;;5.46;62.93;101860.94;4970682;28;20030;-84
2020/12/27 01:29:01;;;;;;;73.38;38.95;;;;;;;5.20;61.99;101772.50;4972995;28;20038;-84
2020/12/27 01:31:28;;;;;;;70.07;39.72;;;;;;;5.04;61.78;101748.81;4970903;28;20435;-85
2020/12/27 01:33:55;;;;;;;64.95;38.30;;;;;;;5.26;62.23;101786.50;4971513;28;20031;-84
2020/12/27 01:36:29;;;;;;;63.92;38.35;;;;;;;5.99;61.89;101865.47;4972436;28;20041;-85
2020/12/27 01:39:00;;;;;;;71.55;40.03;;;;;;;5.29;61.17;101706.50;5003705;28;20035;-83
2020/12/27 01:41:27;;;;;;;69.97;38.38;;;;;;;5.39;60.97;101708.94;5004195;28;20035;-83
2020/12/27 01:44:15;;;;;;;69.70;38.83;;;;;;;6.17;60.97;101848.59;4971371;28;20031;-86
2020/12/27 01:46:44;;;;;;;62.80;38.40;;;;;;;6.12;60.82;101818.09;4972853;28;20031;-84
2020/12/27 01:49:12;;;;;;;64.68;35.83;;;;;;;6.26;61.25;101835.59;4972642;28;20126;-84
2020/12/27 01:51:40;;;;;;;55.65;32.45;;;;;;;4.81;60.87;101624.56;4972662;28;20170;-86
2020/12/27 01:54:07;;;;;;;64.53;36.00;;;;;;;5.64;60.26;101747.09;4972284;28;20027;-84
2020/12/27 01:56:39;;;;;;;60.55;36.70;;;;;;;6.26;60.02;101830.94;4971308;28;20035;-84
2020/12/27 01:59:23;;;;;;;57.75;34.05;;;;;;;6.47;59.44;101825.66;4970826;28;20483;-84
2020/12/27 02:01:50;;;;;;;61.30;35.55;;;;;;;6.19;59.45;101783.28;4970642;28;20019;-84
2020/12/27 02:04:17;;;;;;;55.40;35.80;;;;;;;5.69;59.25;101686.88;4970709;28;20031;-83
2020/12/27 02:06:44;;;;;;;58.30;36.00;;;;;;;6.38;59.57;101825.78;4972017;28;20023;-83
2020/12/27 02:09:12;;;;;;;57.17;36.63;;;;;;;5.62;59.57;101684.09;4970673;28;20550;-85
2020/12/27 02:11:42;;;;;;;59.42;38.67;;;;;;;5.64;59.05;101661.91;4971976;28;20045;-84
2020/12/27 02:14:12;;;;;;;62.45;37.50;;;;;;;6.36;59.16;101756.34;4970879;28;20027;-83
2020/12/27 02:16:39;;;;;;;66.07;38.67;;;;;;;5.39;59.13;101623.78;4971881;28;20031;-84
2020/12/27 02:19:12;;;;;;;58.70;37.20;;;;;;;6.62;58.71;101790.66;4970107;28;20495;-83
2020/12/27 02:21:40;;;;;;;67.43;38.67;;;;;;;5.80;59.94;101683.66;4971812;28;20117;-85
2020/12/27 02:24:07;;;;;;;64.47;38.20;;;;;;;5.84;60.29;101695.94;4986803;28;20031;-85
2020/12/27 02:26:34;;;;;;;58.95;39.33;;;;;;;5.98;59.68;101709.81;4971913;28;20030;-85
2020/12/27 02:29:01;;;;;;;62.63;41.60;;;;;;;6.19;60.34;101746.66;4970218;28;20122;-83
2020/12/27 02:31:30;;;;;;;71.97;37.97;;;;;;;5.55;59.44;101626.31;4986769;28;20027;-84
2020/12/27 02:33:57;;;;;;;70.55;41.08;;;;;;;6.29;60.22;101744.41;5003605;28;20034;-84
2020/12/27 02:36:24;;;;;;;69.90;42.72;;;;;;;5.32;59.99;101594.38;4972553;28;20031;-84
2020/12/27 02:38:51;;;;;;;72.75;42.38;;;;;;;6.16;60.40;101682.75;4972016;28;20035;-83
2020/12/27 02:41:21;;;;;;;66.45;39.28;;;;;;;6.62;59.98;101751.28;4975663;28;20029;-85
2020/12/27 02:43:48;;;;;;;76.32;43.10;;;;;;;5.93;59.99;101660.94;4975496;28;20033;-84
2020/12/27 02:46:22;;;;;;;69.03;39.78;;;;;;;5.99;59.90;101640.91;4975463;28;20453;-84
2020/12/27 02:48:52;;;;;;;69.03;40.10;;;;;;;6.83;58.82;101736.59;4974449;28;20045;-83
2020/12/27 02:51:20;;;;;;;69.55;39.65;;;;;;;6.07;58.34;101590.44;4976234;28;20053;-84
2020/12/27 02:53:50;;;;;;;70.70;38.25;;;;;;;6.28;59.00;101607.97;4975495;28;20023;-84
2020/12/27 02:56:26;;;;;;;;;;;;;;;7.07;58.22;101720.69;4974138;28;20031;-84
2020/12/27 02:58:55;;;;;;;65.90;36.00;;;;;;;6.75;57.60;101662.44;4975327;28;19947;-83
2020/12/27 03:01:22;;;;;;;60.40;34.03;;;;;;;5.60;57.69;101453.50;4975127;28;20023;-83
2020/12/27 03:03:49;;;;;;;52.13;33.05;;;;;;;6.15;58.03;101584.81;4975196;28;20122;-84
2020/12/27 03:06:19;;;;;;;57.55;34.22;;;;;;;6.25;57.33;101569.88;4975285;28;20725;-82
2020/12/27 03:08:54;;;;;;;53.55;34.45;;;;;;;7.25;56.33;101700.84;4976641;28;20046;-82
2020/12/27 03:11:25;;;;;;;64.78;34.22;;;;;;;7.43;56.48;101694.78;4974474;28;20545;-84
2020/12/27 03:14:02;;;;;;;57.03;32.30;;;;;;;7.48;55.81;101689.53;4975367;28;20031;-84
2020/12/27 03:16:29;;;;;;;57.40;36.15;;;;;;;5.73;56.13;101414.31;4973686;28;20026;-85
2020/12/27 03:18:56;;;;;;;61.03;34.63;;;;;;;6.88;55.15;101552.44;4973127;28;20530;-83
2020/12/27 03:21:26;;;;;;;45.03;30.10;;;;;;;7.13;54.04;101612.44;4975053;28;20023;-83
2020/12/27 03:23:53;;;;;;;55.80;30.60;;;;;;;7.15;54.11;101610.38;4973428;28;20027;-83
2020/12/27 03:26:20;;;;;;;47.20;29.92;;;;;;;6.44;53.70;101459.09;4973087;28;20027;-84
2020/12/27 03:28:47;;;;;;;54.70;32.50;;;;;;;7.49;53.81;101619.56;4989495;28;20117;-83
2020/12/27 03:31:14;;;;;;;49.45;29.40;;;;;;;7.24;53.88;101591.72;4989349;28;20030;-84
2020/12/27 03:33:41;;;;;;;47.72;28.75;;;;;;;6.95;54.24;101530.44;4989506;28;20026;-84
2020/12/27 03:36:08;;;;;;;53.60;31.67;;;;;;;7.20;53.57;101554.66;4976770;28;20051;-83
2020/12/27 03:38:35;;;;;;;40.50;29.80;;;;;;;7.35;53.35;101569.09;4989434;28;20033;-83
2020/12/27 03:41:02;;;;;;;44.40;29.35;;;;;;;7.46;51.99;101548.34;4973947;28;20550;-83
2020/12/27 03:43:29;;;;;;;48.55;32.25;;;;;;;7.15;53.41;101518.63;4972802;28;20039;-82
2020/12/27 03:45:56;;;;;;;48.28;30.95;;;;;;;7.85;53.23;101627.69;4973316;28;20034;-82
2020/12/27 03:48:23;;;;;;;45.78;28.30;;;;;;;7.78;53.20;101598.22;5005539;28;20154;-84
2020/12/27 03:50:53;;;;;;;45.45;28.98;;;;;;;8.06;52.59;101641.31;4973893;28;20038;-84
2020/12/27 03:53:20;;;;;;;46.13;29.05;;;;;;;7.64;52.54;101594.59;4972801;28;20380;-84
2020/12/27 03:55:47;;;;;;;44.40;29.70;;;;;;;7.23;52.72;101533.06;4974060;28;20114;-85
2020/12/27 03:58:14;;;;;;;41.33;27.58;;;;;;;6.96;50.77;101466.06;4972714;28;20035;-83
2020/12/27 04:00:41;;;;;;;45.22;27.95;;;;;;;7.49;51.40;101525.88;4972632;28;20118;-84
2020/12/27 04:03:08;;;;;;;43.55;28.73;;;;;;;7.91;50.23;101599.28;4974563;28;20069;-84
2020/12/27 04:05:35;;;;;;;41.40;24.35;;;;;;;7.91;50.33;101604.81;4988640;28;20031;-84
2020/12/27 04:08:02;;;;;;;52.08;27.13;;;;;;;7.98;49.92;101583.59;4973536;28;20022;-83
2020/12/27 04:10:29;;;;;;;48.63;26.30;;;;;;;7.78;49.59;101525.66;4973689;28;20061;-82
2020/12/27 04:12:56;;;;;;;41.53;25.83;;;;;;;7.99;49.73;101563.22;4973696;28;20085;-83
2020/12/27 04:15:23;;;;;;;43.50;25.63;;;;;;;7.92;48.33;101543.06;4988363;28;20157;-83
2020/12/27 04:17:50;;;;;;;38.25;24.13;;;;;;;7.85;48.12;101550.50;4971985;28;20045;-84
2020/12/27 04:20:17;;;;;;;43.83;27.00;;;;;;;7.86;49.06;101563.22;4973556;28;20054;-84
2020/12/27 04:22:44;;;;;;;42.47;29.30;;;;;;;7.32;49.98;101497.88;4973749;28;20035;-83
2020/12/27 04:25:14;;;;;;;43.38;26.23;;;;;;;6.75;49.27;101367.97;4988218;28;20029;-84
2020/12/27 04:27:41;;;;;;;42.42;28.00;;;;;;;8.11;49.25;101568.94;4971740;28;20044;-83
2020/12/27 04:30:07;;;;;;;37.58;26.33;;;;;;;7.46;49.77;101471.22;4973245;28;20114;-84
2020/12/27 04:32:35;;;;;;;41.53;26.58;;;;;;;7.36;50.34;101493.66;4971890;28;20026;-83
2020/12/27 04:35:03;;;;;;;43.78;27.80;;;;;;;7.35;50.51;101463.56;5004256;28;20037;-85
2020/12/27 04:37:30;;;;;;;44.30;29.67;;;;;;;7.54;50.43;101533.50;5004796;28;20042;-83
2020/12/27 04:40:21;;;;;;;48.47;29.65;;;;;;;7.07;50.14;101456.34;4973193;28;20031;-82
2020/12/27 04:42:52;;;;;;;60.05;29.63;;;;;;;7.43;49.05;101529.47;4975091;28;20054;-84
2020/12/27 04:45:20;;;;;;;44.58;28.60;;;;;;;7.35;49.92;101513.13;4972973;28;20078;-84
2020/12/27 04:47:48;;;;;;;51.25;28.17;;;;;;;7.11;49.24;101438.31;5004106;28;20402;-84
2020/12/27 04:50:17;;;;;;;43.85;26.90;;;;;;;6.91;48.86;101414.38;4971821;28;20038;-84
2020/12/27 04:52:44;;;;;;;46.92;27.52;;;;;;;7.59;47.87;101522.72;4972743;28;20022;-84
2020/12/27 04:55:12;;;;;;;49.55;28.75;;;;;;;7.57;47.89;101499.19;5004241;28;20026;-85
2020/12/27 04:57:42;;;;;;;53.95;29.60;;;;;;;7.77;47.66;101554.31;4973167;28;20031;-85
2020/12/27 05:00:09;;;;;;;44.88;27.67;;;;;;;7.16;47.73;101454.22;4973002;28;20550;-86
2020/12/27 05:02:36;;;;;;;49.50;27.45;;;;;;;6.85;45.78;101410.53;5002989;28;20062;-84
2020/12/27 05:05:12;;;;;;;38.80;26.17;;;;;;;7.38;46.37;101465.91;5003704;28;20542;-83
2020/12/27 05:07:42;;;;;;;46.88;25.33;;;;;;;7.24;46.65;101446.59;4972312;28;20039;-84
2020/12/27 05:10:12;;;;;;;50.05;29.08;;;;;;;7.69;46.34;101494.75;4972485;28;20026;-84
2020/12/27 05:12:38;;;;;;;;;;;;;;;7.94;46.74;101539.06;4971535;28;20042;-84
2020/12/27 05:15:07;;;;;;;45.28;28.42;;;;;;;8.12;46.17;101540.28;4972352;28;20090;-83
2020/12/27 05:17:35;;;;;;;42.15;26.52;;;;;;;7.10;46.15;101362.28;4972400;28;20035;-84
2020/12/27 05:20:16;;;;;;;42.65;25.40;;;;;;;7.62;45.32;101469.91;5002713;28;20051;-84
2020/12/27 05:22:44;;;;;;;42.33;25.23;;;;;;;7.88;44.80;101489.41;4969980;28;20042;-83
2020/12/27 05:25:11;;;;;;;39.13;24.40;;;;;;;8.15;44.83;101530.75;4970126;28;20383;-84
2020/12/27 05:27:43;;;;;;;39.78;26.15;;;;;;;7.31;45.46;101363.97;5002432;28;20035;-84
2020/12/27 05:30:10;;;;;;;48.70;26.27;;;;;;;8.07;44.91;101462.84;5002515;28;20050;-84
2020/12/27 05:32:37;;;;;;;38.22;24.10;;;;;;;7.26;44.46;101369.28;4971464;28;20030;-84
2020/12/27 05:35:11;;;;;;;37.58;25.63;;;;;;;7.99;44.42;101468.59;4986018;28;20030;-83
2020/12/27 05:37:39;;;;;;;40.03;26.10;;;;;;;8.31;44.42;101502.69;5002602;28;20117;-83
2020/12/27 05:40:07;;;;;;;43.28;25.65;;;;;;;7.96;44.88;101449.75;4971349;28;20057;-83
2020/12/27 05:42:35;;;;;;;41.58;27.63;;;;;;;8.02;45.01;101471.78;5002578;28;20027;-84
2020/12/27 05:45:21;;;;;;;40.22;26.63;;;;;;;7.81;45.92;101443.38;4971269;28;20034;-83
2020/12/27 05:47:48;;;;;;;46.28;28.15;;;;;;;8.34;46.29;101527.09;4969689;28;20030;-84
2020/12/27 05:50:17;;;;;;;52.35;28.42;;;;;;;7.96;46.17;101491.09;4970077;28;20142;-84
2020/12/27 05:52:46;;;;;;;44.95;28.08;;;;;;;7.06;47.41;101399.53;4970962;28;20034;-84
2020/12/27 05:55:19;;;;;;;49.00;29.67;;;;;;;7.26;47.65;101405.91;4969479;28;20463;-84
2020/12/27 05:57:57;;;;;;;43.80;29.05;;;;;;;8.19;47.66;101545.78;5002160;28;20047;-84
2020/12/27 06:00:25;;;;;;;40.22;27.73;;;;;;;7.59;48.24;101459.31;4985880;28;20026;-84
2020/12/27 06:03:01;;;;;;;54.40;29.90;;;;;;;8.04;47.51;101541.34;4969572;28;20455;-83
2020/12/27 06:05:37;;;;;;;44.30;29.42;;;;;;;8.12;47.65;101544.94;4970990;28;20030;-83
2020/12/27 06:08:33;;;;;;;47.05;30.70;;;;;;;8.07;48.30;101546.47;4985866;28;20071;-84
2020/12/27 06:11:06;;;;;;;53.42;31.92;;;;;;;8.07;48.32;101549.22;4970992;28;20444;-83
2020/12/27 06:14:01;;;;;;;58.03;31.85;;;;;;;7.84;48.41;101516.56;4987211;28;20062;-83
2020/12/27 06:16:45;;;;;;;52.78;30.35;;;;;;;8.19;48.33;101546.66;4974348;28;20027;-83
2020/12/27 06:19:24;;;;;;;49.42;31.42;;;;;;;8.13;48.36;101541.16;4911422;28;2262837;-83
2020/12/27 06:22:09;;;;;;;48.53;32.40;;;;;;;8.11;48.57;101544.13;4990473;28;20038;-83
2020/12/27 06:24:38;;;;;;;59.17;33.72;;;;;;;7.34;49.06;101428.81;4975359;28;20031;-84
2020/12/27 06:27:06;;;;;;;51.33;32.27;;;;;;;8.10;48.45;101544.31;5006862;28;20099;-83
2020/12/27 06:29:37;;;;;;;56.75;33.65;;;;;;;7.34;48.53;101401.25;4974233;28;20047;-83
2020/12/27 06:32:07;;;;;;;51.40;32.03;;;;;;;7.29;47.84;101423.06;4975496;28;20077;-84
2020/12/27 06:34:34;;;;;;;49.55;31.70;;;;;;;7.44;48.13;101448.53;4975245;28;20452;-83
2020/12/27 06:37:06;;;;;;;48.70;31.77;;;;;;;7.41;48.39;101434.34;4974003;28;20101;-84
2020/12/27 06:39:33;;;;;;;49.55;31.65;;;;;;;7.32;48.77;101425.41;4975509;28;20031;-83
2020/12/27 06:42:18;;;;;;;52.42;31.73;;;;;;;8.18;47.67;101555.13;4975299;28;20034;-83
2020/12/27 06:44:46;;;;;;;44.35;29.70;;;;;;;7.52;48.13;101470.38;4974093;28;20027;-84
2020/12/27 06:47:14;;;;;;;53.47;33.25;;;;;;;7.68;48.73;101506.81;4975395;28;20035;-84
2020/12/27 06:49:42;;;;;;;53.78;30.48;;;;;;;7.40;48.51;101447.25;4975418;28;20066;-83
2020/12/27 06:52:24;;;;;;;45.40;30.77;;;;;;;7.85;47.54;101525.69;4975894;28;20019;-83
2020/12/27 06:54:55;;;;;;;49.33;30.35;;;;;;;7.98;47.76;101538.63;4974998;28;20037;-84
2020/12/27 06:57:57;;;;;;;56.38;31.05;;;;;;;8.14;47.32;101553.88;4975229;28;20035;-83
2020/12/27 07:00:28;;;;;;;44.90;27.83;;;;;;;8.06;46.56;101536.50;4952559;28;20479;-84
2020/12/27 07:03:16;;;;;;;43.63;30.63;;;;;;;7.74;46.69;101483.91;4977327;28;20550;-83
2020/12/27 07:05:45;;;;;;;47.35;29.25;;;;;;;8.16;46.36;101573.81;4976431;28;20034;-84
2020/12/27 07:08:14;;;;;;;46.50;25.90;;;;;;;8.20;45.86;101580.63;4973775;28;20134;-83
2020/12/27 07:10:50;;;;;;;48.40;27.00;;;;;;;7.43;45.99;101448.75;4975118;28;20427;-83
2020/12/27 07:13:18;;;;;;;43.47;27.35;;;;;;;7.61;45.49;101487.50;4975160;28;20027;-84
2020/12/27 07:15:54;;;;;;;41.28;25.58;;;;;;;7.73;45.37;101509.78;4973422;28;20077;-83
2020/12/27 07:18:28;;;;;;;38.28;25.10;;;;;;;7.99;44.08;101546.69;4980464;28;20023;-84
2020/12/27 07:20:57;;;;;;;36.00;24.98;;;;;;;7.66;44.80;101496.00;4991329;28;20053;-84
2020/12/27 07:23:26;;;;;;;38.97;24.65;;;;;;;8.26;44.39;101589.94;4991805;28;20022;-83
2020/12/27 07:26:12;;;;;;;35.05;23.67;;;;;;;7.73;44.63;101514.47;4991350;28;20034;-82
2020/12/27 07:28:39;;;;;;;38.13;25.58;;;;;;;7.49;43.88;101489.22;4990284;28;20042;-83
2020/12/27 07:31:06;;;;;;;40.63;24.80;;;;;;;7.67;44.37;101521.66;4988497;28;20035;-83
2020/12/27 07:33:38;;;;;;;47.65;26.15;;;;;;;7.81;44.44;101548.16;4987985;28;20125;-83
2020/12/27 07:36:10;;;;;;;38.88;24.02;;;;;;;7.21;43.97;101452.56;4976753;28;20026;-81
2020/12/27 07:38:52;;;;;;;35.53;25.55;;;;;;;8.02;43.60;101586.78;4977746;28;20037;-83
2020/12/27 07:41:23;;;;;;;41.25;24.58;;;;;;;7.98;44.12;101594.63;4993180;28;20035;-83
2020/12/27 07:43:51;;;;;;;41.25;24.45;;;;;;;7.25;43.96;101486.84;5009827;28;20038;-81
2020/12/27 07:46:21;;;;;;;37.85;23.50;;;;;;;7.37;43.39;101506.38;4974440;28;20054;-84
2020/12/27 07:48:49;;;;;;;44.28;23.23;;;;;;;7.98;42.93;101589.13;4973727;28;20042;-83
2020/12/27 07:51:19;;;;;;;38.70;23.65;;;;;;;7.95;43.47;101603.31;4974395;28;20035;-84
2020/12/27 07:53:56;;;;;;;31.93;23.03;;;;;;;7.91;43.76;101572.56;4989397;28;20125;-85
2020/12/27 07:56:26;;;;;;;43.45;25.10;;;;;;;7.99;43.89;101589.94;4974533;28;20027;-84
2020/12/27 07:58:55;;;;;;;35.43;24.43;;;;;;;7.90;43.58;101592.09;4975131;28;20029;-84
2020/12/27 08:01:25;;;;;;;37.93;24.17;;;;;;;7.89;43.71;101593.97;4973508;28;20495;-83
2020/12/27 08:03:57;;;;;;;33.17;21.80;;;;;;;7.85;43.20;101600.97;4974801;28;20097;-83
2020/12/27 08:06:26;;;;;;;33.70;23.67;;;;;;;7.87;43.12;101603.50;4975270;28;20023;-83
2020/12/27 08:09:13;;;;;;;40.72;22.80;;;;;;;7.97;42.59;101603.97;4974504;28;20070;-83
2020/12/27 08:11:42;;;;;;;41.78;22.50;;;;;;;7.09;42.44;101481.75;4973092;28;20034;-84
2020/12/27 08:14:13;;;;;;;32.90;22.40;;;;;;;7.84;42.39;101614.97;4974620;28;20034;-83
2020/12/27 08:16:43;;;;;;;37.35;23.23;;;;;;;7.50;42.94;101563.41;5005223;28;20114;-84
2020/12/27 08:19:15;;;;;;;44.27;24.77;;;;;;;7.07;42.52;101478.38;4974297;28;20037;-84
2020/12/27 08:21:43;;;;;;;39.65;24.10;;;;;;;7.77;42.56;101621.31;4974332;28;20062;-84
2020/12/27 08:24:16;;;;;;;42.10;24.35;;;;;;;7.83;42.77;101619.63;5005407;28;20204;-84
2020/12/27 08:26:45;;;;;;;38.63;22.08;;;;;;;7.71;42.44;101589.09;4973002;28;20037;-84
2020/12/27 08:29:23;;;;;;;40.53;24.02;;;;;;;7.80;42.79;101620.91;4972628;28;20121;-83
2020/12/27 08:32:08;;;;;;;37.50;23.45;;;;;;;7.78;42.51;101622.16;5004926;28;20034;-82
2020/12/27 08:34:35;;;;;;;39.95;24.70;;;;;;;6.49;42.42;101386.13;4973957;28;20394;-83
2020/12/27 08:37:03;;;;;;;40.83;26.08;;;;;;;7.72;42.75;101612.81;4971672;28;20056;-83
2020/12/27 08:39:46;;;;;;;39.05;23.95;;;;;;;7.13;42.66;101510.56;4973411;28;20031;-84
2020/12/27 08:42:22;;;;;;;40.20;25.63;;;;;;;7.69;42.23;101624.28;4973354;28;20038;-83
2020/12/27 08:45:19;;;;;;;32.47;22.75;;;;;;;7.80;42.47;101623.66;4973250;28;20509;-84
2020/12/27 08:48:10;;;;;;;38.97;25.58;;;;;;;7.68;43.06;101614.31;4972030;28;20041;-83
2020/12/27 08:50:42;;;;;;;45.42;24.30;;;;;;;7.26;42.65;101524.34;4973254;28;20041;-84
2020/12/27 08:53:12;;;;;;;43.58;26.45;;;;;;;6.41;42.62;101410.00;4971979;28;20031;-83
2020/12/27 08:55:39;;;;;;;44.58;25.83;;;;;;;7.77;43.34;101637.00;4973111;28;20038;-82
2020/12/27 08:58:11;;;;;;;50.05;27.63;;;;;;;7.33;43.40;101560.19;5004323;28;20089;-84
2020/12/27 09:00:39;;;;;;;41.90;25.05;;;;;;;6.87;43.34;101514.94;4972958;28;20152;-81
2020/12/27 09:03:07;;;;;;;42.28;25.42;;;;;;;7.20;43.40;101552.72;4973020;28;20078;-82
2020/12/27 09:05:37;;;;;;;42.67;27.83;;;;;;;6.48;43.70;101448.53;4972964;28;20031;-85
2020/12/27 09:08:18;;;;;;;49.97;28.35;;;;;;;7.37;43.35;101599.22;4973144;28;20031;-85
2020/12/27 09:10:45;;;;;;;51.28;26.83;;;;;;;7.71;43.09;101640.63;4971390;28;20046;-85
2020/12/27 09:13:14;;;;;;;44.92;28.00;;;;;;;7.04;44.26;101544.84;4987897;28;20058;-84
2020/12/27 09:15:50;;;;;;;52.25;29.52;;;;;;;7.60;44.04;101642.91;4973477;28;20031;-84
2020/12/27 09:18:27;;;;;;;58.20;28.00;;;;;;;7.04;44.12;101573.25;5004750;28;20031;-85
2020/12/27 09:21:13;;;;;;;49.67;28.83;;;;;;;6.89;44.51;101536.78;4971436;28;20070;-84
2020/12/27 09:23:40;;;;;;;41.65;28.50;;;;;;;7.29;44.95;101621.41;5003621;28;20043;-84
2020/12/27 09:26:09;;;;;;;49.38;29.98;;;;;;;6.06;45.21;101412.81;4971545;28;20022;-84
2020/12/27 09:28:39;;;;;;;45.25;29.92;;;;;;;6.32;44.89;101484.63;4972897;28;20391;-85
2020/12/27 09:31:11;;;;;;;41.88;27.17;;;;;;;7.04;44.87;101588.91;4973490;28;20035;-84
2020/12/27 09:33:48;;;;;;;45.22;29.48;;;;;;;6.56;45.14;101530.06;5003971;28;20070;-84
2020/12/27 09:36:18;;;;;;;54.65;30.83;;;;;;;7.46;45.35;101658.56;4972530;28;20027;-84
2020/12/27 09:38:46;;;;;;;50.30;30.90;;;;;;;6.00;45.52;101424.59;4987475;28;20027;-85
2020/12/27 09:41:15;;;;;;;54.10;30.48;;;;;;;7.02;45.63;101577.25;4971346;28;20031;-84
2020/12/27 09:44:02;;;;;;;50.05;30.02;;;;;;;7.08;45.97;101560.75;5003498;28;20098;-83
2020/12/27 09:46:55;;;;;;;53.40;31.55;;;;;;;6.85;46.22;101537.16;4987161;28;20037;-84
2020/12/27 09:49:25;;;;;;;51.78;31.55;;;;;;;7.45;46.05;101664.28;4972202;28;20122;-84
2020/12/27 09:52:15;;;;;;;54.58;29.55;;;;;;;7.26;46.55;101645.56;4986708;28;20027;-84
2020/12/27 09:54:46;;;;;;;49.85;32.45;;;;;;;7.26;46.65;101697.06;4972153;28;20027;-85
2020/12/27 09:57:18;;;;;;;62.90;34.10;;;;;;;7.28;47.01;101666.53;4972291;28;20086;-84
2020/12/27 09:59:50;;;;;;;50.70;34.13;;;;;;;7.27;46.60;101676.72;4970517;28;20039;-84
2020/12/27 10:02:18;;;;;;;50.65;31.92;;;;;;;6.67;46.15;101602.94;5003486;28;20034;-82
2020/12/27 10:04:45;;;;;;;51.70;30.38;;;;;;;6.36;45.12;101539.03;5003262;28;20042;-84
2020/12/27 10:07:12;;;;;;;51.05;27.83;;;;;;;6.68;45.42;101583.47;4970805;28;20541;-83
2020/12/27 10:09:39;;;;;;;52.45;30.17;;;;;;;6.86;45.23;101604.09;4970619;28;20096;-84
2020/12/27 10:12:06;;;;;;;57.70;30.95;;;;;;;7.46;45.27;101680.63;4986956;28;20050;-85
2020/12/27 10:14:34;;;;;;;49.83;28.65;;;;;;;6.80;45.17;101578.25;4970667;28;20027;-84
2020/12/27 10:17:02;;;;;;;50.85;29.55;;;;;;;6.84;44.25;101570.41;4971913;28;20482;-85
2020/12/27 10:19:30;;;;;;;50.00;28.83;;;;;;;7.07;44.75;101616.88;4986410;28;20399;-85
2020/12/27 10:21:58;;;;;;;47.88;28.92;;;;;;;7.42;44.98;101678.47;4971801;28;20023;-84
2020/12/27 10:24:28;;;;;;;44.75;28.35;;;;;;;7.15;44.65;101640.66;4970333;28;20035;-84
2020/12/27 10:26:55;;;;;;;45.08;30.65;;;;;;;6.44;44.21;101503.09;4971746;28;20054;-84
2020/12/27 10:29:22;;;;;;;45.00;31.00;;;;;;;6.81;44.51;101573.56;4970511;28;20049;-84
2020/12/27 10:31:53;;;;;;;44.88;28.15;;;;;;;6.97;44.83;101599.91;4970516;28;20027;-85
2020/12/27 10:34:21;;;;;;;47.72;33.40;;;;;;;6.29;45.11;101499.66;4970400;28;20086;-84
2020/12/27 10:36:49;;;;;;;47.80;30.27;;;;;;;6.87;44.69;101582.91;5002780;28;20035;-84
2020/12/27 10:39:16;;;;;;;49.70;30.38;;;;;;;7.03;44.92;101648.66;4970235;28;20058;-84
2020/12/27 10:41:45;;;;;;;45.88;29.85;;;;;;;6.06;45.01;101484.28;4971651;28;20033;-85
2020/12/27 10:44:17;;;;;;;41.72;29.15;;;;;;;6.70;45.09;101614.38;4971697;28;20026;-85
2020/12/27 10:46:45;;;;;;;59.63;30.48;;;;;;;7.24;44.94;101704.66;4970234;28;20129;-84
2020/12/27 10:49:13;;;;;;;58.28;32.33;;;;;;;6.36;45.12;101561.03;4970244;28;20187;-84
2020/12/27 10:51:41;;;;;;;50.83;28.90;;;;;;;7.12;45.86;101712.66;4971573;28;20031;-83
2020/12/27 10:54:11;;;;;;;46.45;28.85;;;;;;;6.48;45.91;101610.00;4971761;28;20489;-83
2020/12/27 10:56:40;;;;;;;53.88;31.75;;;;;;;7.08;45.55;101684.66;5002839;28;20023;-83
2020/12/27 10:59:07;;;;;;;47.85;30.70;;;;;;;6.71;45.89;101640.84;4971597;28;20035;-84
2020/12/27 11:01:34;;;;;;;50.35;33.00;;;;;;;5.77;45.83;101499.06;4974453;28;20487;-84
2020/12/27 11:04:01;;;;;;;54.33;30.42;;;;;;;5.70;46.38;101468.81;4957667;28;20039;-84
2020/12/27 11:06:32;;;;;;;47.75;31.42;;;;;;;7.19;46.00;101701.69;5006429;28;20023;-84
2020/12/27 11:09:00;;;;;;;54.03;30.40;;;;;;;7.14;46.35;101694.03;4974029;28;20035;-83
2020/12/27 11:11:28;;;;;;;57.70;33.83;;;;;;;6.88;46.79;101664.47;4973750;28;20121;-85
2020/12/27 11:13:55;;;;;;;51.30;29.92;;;;;;;6.11;46.60;101558.78;4973742;28;20427;-83
2020/12/27 11:16:22;;;;;;;57.90;36.42;;;;;;;6.81;46.48;101694.69;4974865;28;20027;-84
2020/12/27 11:18:48;;;;;;;50.03;32.03;;;;;;;6.33;46.75;101623.84;4974900;28;20027;-83
2020/12/27 11:21:15;;;;;;;55.50;30.40;;;;;;;6.49;47.03;101674.97;4974509;28;20499;-84
2020/12/27 11:23:42;;;;;;;50.40;31.58;;;;;;;6.75;46.70;101714.75;4974420;28;20419;-84
2020/12/27 11:26:09;;;;;;;46.85;32.20;;;;;;;5.89;46.73;101572.53;4974480;28;20030;-85
2020/12/27 11:28:37;;;;;;;59.85;34.40;;;;;;;6.56;46.44;101700.66;4973352;28;20054;-86
2020/12/27 11:31:04;;;;;;;56.75;33.20;;;;;;;6.70;47.04;101764.88;4974017;28;20444;-84